sensor_id;sensor_type;location;lat;lon;timestamp;temperature;humidity
13223;DHT22;6676;45.192;5.722;2023-04-06T00:00:14;7.70;99.90
13223;DHT22;6676;45.192;5.722;2023-04-06T00:03:05;7.70;99.90
13223;DHT22;6676;45.192;5.722;2023-04-06T00:05:57;7.60;99.90
13223;DHT22;6676;45.192;5.722;2023-04-06T00:08:48;7.60;99.90
13223;DHT22;6676;45.192;5.722;2023-04-06T00:11:40;7.60;99.90
13223;DHT22;6676;45.192;5.722;2023-04-06T00:14:31;7.60;99.90
13223;DHT22;6676;45.192;5.722;2023-04-06T00:17:22;7.50;99.90
13223;DHT22;6676;45.192;5.722;2023-04-06T00:20:14;7.50;99.90
13223;DHT22;6676;45.192;5.722;2023-04-06T00:23:05;7.40;99.90
13223;DHT22;6676;45.192;5.722;2023-04-06T00:25:57;7.50;99.90
13223;DHT22;6676;45.192;5.722;2023-04-06T00:28:49;7.60;99.90
13223;DHT22;6676;45.192;5.722;2023-04-06T00:31:42;7.50;99.90
13223;DHT22;6676;45.192;5.722;2023-04-06T00:37:14;7.40;99.90
13223;DHT22;6676;45.192;5.722;2023-04-06T00:42:45;7.30;99.90
13223;DHT22;6676;45.192;5.722;2023-04-06T00:45:37;7.20;99.90
13223;DHT22;6676;45.192;5.722;2023-04-06T00:48:29;7.20;99.90
13223;DHT22;6676;45.192;5.722;2023-04-06T00:51:22;7.10;99.90
13223;DHT22;6676;45.192;5.722;2023-04-06T00:54:13;7.10;99.90
13223;DHT22;6676;45.192;5.722;2023-04-06T00:57:05;7.10;99.90
13223;DHT22;6676;45.192;5.722;2023-04-06T01:02:36;7.00;99.90
13223;DHT22;6676;45.192;5.722;2023-04-06T01:05:29;7.00;99.90
13223;DHT22;6676;45.192;5.722;2023-04-06T01:08:21;7.00;99.90
13223;DHT22;6676;45.192;5.722;2023-04-06T01:11:14;6.90;99.90
13223;DHT22;6676;45.192;5.722;2023-04-06T01:14:06;6.90;99.90
13223;DHT22;6676;45.192;5.722;2023-04-06T01:19:43;6.90;99.90
13223;DHT22;6676;45.192;5.722;2023-04-06T01:22:36;6.80;99.90
13223;DHT22;6676;45.192;5.722;2023-04-06T01:25:28;6.80;99.90
13223;DHT22;6676;45.192;5.722;2023-04-06T01:28:21;6.70;99.90
13223;DHT22;6676;45.192;5.722;2023-04-06T01:31:17;6.60;99.90
13223;DHT22;6676;45.192;5.722;2023-04-06T01:36:52;6.70;99.90
13223;DHT22;6676;45.192;5.722;2023-04-06T01:42:24;6.50;99.90
13223;DHT22;6676;45.192;5.722;2023-04-06T01:45:18;6.40;99.90
13223;DHT22;6676;45.192;5.722;2023-04-06T01:48:12;6.50;99.90
13223;DHT22;6676;45.192;5.722;2023-04-06T01:53:44;6.40;99.90
13223;DHT22;6676;45.192;5.722;2023-04-06T01:59:16;6.30;99.90
13223;DHT22;6676;45.192;5.722;2023-04-06T02:02:07;6.30;99.90
13223;DHT22;6676;45.192;5.722;2023-04-06T02:07:39;6.20;99.90
13223;DHT22;6676;45.192;5.722;2023-04-06T02:10:32;6.00;99.90
13223;DHT22;6676;45.192;5.722;2023-04-06T02:13:25;5.90;99.90
13223;DHT22;6676;45.192;5.722;2023-04-06T02:19:09;5.80;99.90
13223;DHT22;6676;45.192;5.722;2023-04-06T02:22:02;5.70;99.90
13223;DHT22;6676;45.192;5.722;2023-04-06T02:24:54;5.60;99.90
13223;DHT22;6676;45.192;5.722;2023-04-06T02:27:47;5.60;99.90
13223;DHT22;6676;45.192;5.722;2023-04-06T02:30:39;5.50;99.90
13223;DHT22;6676;45.192;5.722;2023-04-06T02:33:31;5.50;99.90
13223;DHT22;6676;45.192;5.722;2023-04-06T02:36:23;5.50;99.90
13223;DHT22;6676;45.192;5.722;2023-04-06T02:41:55;5.60;99.90
13223;DHT22;6676;45.192;5.722;2023-04-06T02:44:47;5.60;99.90
13223;DHT22;6676;45.192;5.722;2023-04-06T02:47:39;5.60;99.90
13223;DHT22;6676;45.192;5.722;2023-04-06T02:53:15;5.60;99.90
13223;DHT22;6676;45.192;5.722;2023-04-06T02:56:07;5.70;99.90
13223;DHT22;6676;45.192;5.722;2023-04-06T02:59:06;5.60;99.90
13223;DHT22;6676;45.192;5.722;2023-04-06T03:01:59;5.60;99.90
13223;DHT22;6676;45.192;5.722;2023-04-06T03:07:31;5.60;99.90
13223;DHT22;6676;45.192;5.722;2023-04-06T03:13:02;5.60;99.90
13223;DHT22;6676;45.192;5.722;2023-04-06T03:18:48;5.60;99.90
13223;DHT22;6676;45.192;5.722;2023-04-06T03:24:19;5.50;99.90
13223;DHT22;6676;45.192;5.722;2023-04-06T03:27:11;5.50;99.90
13223;DHT22;6676;45.192;5.722;2023-04-06T03:30:05;5.50;99.90
13223;DHT22;6676;45.192;5.722;2023-04-06T03:32:57;5.50;99.90
13223;DHT22;6676;45.192;5.722;2023-04-06T03:38:28;5.50;99.90
13223;DHT22;6676;45.192;5.722;2023-04-06T03:41:19;5.40;99.90
13223;DHT22;6676;45.192;5.722;2023-04-06T03:44:12;5.40;99.90
13223;DHT22;6676;45.192;5.722;2023-04-06T03:47:06;5.40;99.90
13223;DHT22;6676;45.192;5.722;2023-04-06T03:52:37;5.30;99.90
13223;DHT22;6676;45.192;5.722;2023-04-06T03:58:09;5.40;99.90
13223;DHT22;6676;45.192;5.722;2023-04-06T04:01:00;5.40;99.90
13223;DHT22;6676;45.192;5.722;2023-04-06T04:03:52;5.40;99.90
13223;DHT22;6676;45.192;5.722;2023-04-06T04:12:06;5.40;99.90
13223;DHT22;6676;45.192;5.722;2023-04-06T04:14:57;5.40;99.90
13223;DHT22;6676;45.192;5.722;2023-04-06T04:20:28;5.40;99.90
13223;DHT22;6676;45.192;5.722;2023-04-06T04:23:19;5.40;99.90
13223;DHT22;6676;45.192;5.722;2023-04-06T04:26:10;5.30;99.90
13223;DHT22;6676;45.192;5.722;2023-04-06T04:29:04;5.30;99.90
13223;DHT22;6676;45.192;5.722;2023-04-06T04:31:57;5.20;99.90
13223;DHT22;6676;45.192;5.722;2023-04-06T04:37:28;5.10;99.90
13223;DHT22;6676;45.192;5.722;2023-04-06T04:43:01;5.10;99.90
13223;DHT22;6676;45.192;5.722;2023-04-06T04:45:54;5.10;99.90
13223;DHT22;6676;45.192;5.722;2023-04-06T04:51:27;5.20;99.90
13223;DHT22;6676;45.192;5.722;2023-04-06T04:54:24;5.20;99.90
13223;DHT22;6676;45.192;5.722;2023-04-06T04:59:56;5.10;99.90
13223;DHT22;6676;45.192;5.722;2023-04-06T05:02:48;5.00;99.90
13223;DHT22;6676;45.192;5.722;2023-04-06T05:05:41;5.00;99.90
13223;DHT22;6676;45.192;5.722;2023-04-06T05:08:35;5.00;99.90
13223;DHT22;6676;45.192;5.722;2023-04-06T05:14:07;4.90;99.90
13223;DHT22;6676;45.192;5.722;2023-04-06T05:22:19;4.90;99.90
13223;DHT22;6676;45.192;5.722;2023-04-06T05:25:13;4.90;99.90
13223;DHT22;6676;45.192;5.722;2023-04-06T05:28:05;4.90;99.90
13223;DHT22;6676;45.192;5.722;2023-04-06T05:33:42;5.00;99.90
13223;DHT22;6676;45.192;5.722;2023-04-06T05:39:13;5.00;99.90
13223;DHT22;6676;45.192;5.722;2023-04-06T05:44:47;5.20;99.90
13223;DHT22;6676;45.192;5.722;2023-04-06T05:47:39;5.20;99.90
13223;DHT22;6676;45.192;5.722;2023-04-06T05:53:11;5.20;99.90
13223;DHT22;6676;45.192;5.722;2023-04-06T05:56:05;5.20;99.90
13223;DHT22;6676;45.192;5.722;2023-04-06T05:58:57;5.20;99.90
13223;DHT22;6676;45.192;5.722;2023-04-06T06:01:51;5.30;99.90
13223;DHT22;6676;45.192;5.722;2023-04-06T06:04:44;5.40;99.90
13223;DHT22;6676;45.192;5.722;2023-04-06T06:10:16;5.40;99.90
13223;DHT22;6676;45.192;5.722;2023-04-06T06:15:49;5.70;99.90
13223;DHT22;6676;45.192;5.722;2023-04-06T06:18:42;5.60;99.90
13223;DHT22;6676;45.192;5.722;2023-04-06T06:21:34;5.60;99.90
13223;DHT22;6676;45.192;5.722;2023-04-06T06:27:07;5.70;99.90
13223;DHT22;6676;45.192;5.722;2023-04-06T06:32:38;5.80;99.90
13223;DHT22;6676;45.192;5.722;2023-04-06T06:35:30;5.90;99.90
13223;DHT22;6676;45.192;5.722;2023-04-06T06:38:24;6.00;99.90
13223;DHT22;6676;45.192;5.722;2023-04-06T06:41:16;6.10;99.90
13223;DHT22;6676;45.192;5.722;2023-04-06T06:46:48;6.20;99.90
13223;DHT22;6676;45.192;5.722;2023-04-06T06:52:19;6.20;99.90
13223;DHT22;6676;45.192;5.722;2023-04-06T06:57:55;6.40;99.90
13223;DHT22;6676;45.192;5.722;2023-04-06T07:03:25;6.70;99.90
13223;DHT22;6676;45.192;5.722;2023-04-06T07:08:56;6.90;99.90
13223;DHT22;6676;45.192;5.722;2023-04-06T07:11:48;7.00;99.90
13223;DHT22;6676;45.192;5.722;2023-04-06T07:17:18;7.30;99.90
13223;DHT22;6676;45.192;5.722;2023-04-06T07:20:11;7.40;99.90
13223;DHT22;6676;45.192;5.722;2023-04-06T07:23:02;7.40;99.90
13223;DHT22;6676;45.192;5.722;2023-04-06T07:25:53;7.40;99.90
13223;DHT22;6676;45.192;5.722;2023-04-06T07:28:45;7.50;99.90
13223;DHT22;6676;45.192;5.722;2023-04-06T07:31:36;7.60;99.90
13223;DHT22;6676;45.192;5.722;2023-04-06T07:37:07;7.90;99.90
13223;DHT22;6676;45.192;5.722;2023-04-06T07:42:37;8.10;99.90
13223;DHT22;6676;45.192;5.722;2023-04-06T07:48:09;8.20;99.90
13223;DHT22;6676;45.192;5.722;2023-04-06T07:51:05;8.30;99.90
13223;DHT22;6676;45.192;5.722;2023-04-06T07:53:58;8.30;99.90
13223;DHT22;6676;45.192;5.722;2023-04-06T07:56:52;8.40;99.90
13223;DHT22;6676;45.192;5.722;2023-04-06T08:02:24;8.50;99.90
13223;DHT22;6676;45.192;5.722;2023-04-06T08:05:15;8.50;99.90
13223;DHT22;6676;45.192;5.722;2023-04-06T08:10:48;8.50;99.90
13223;DHT22;6676;45.192;5.722;2023-04-06T08:13:39;8.60;99.90
13223;DHT22;6676;45.192;5.722;2023-04-06T08:19:17;8.70;99.90
13223;DHT22;6676;45.192;5.722;2023-04-06T08:24:49;8.90;99.90
13223;DHT22;6676;45.192;5.722;2023-04-06T08:30:28;9.00;99.90
13223;DHT22;6676;45.192;5.722;2023-04-06T08:33:20;9.10;99.90
13223;DHT22;6676;45.192;5.722;2023-04-06T08:36:13;9.20;99.90
13223;DHT22;6676;45.192;5.722;2023-04-06T08:39:05;9.20;99.90
13223;DHT22;6676;45.192;5.722;2023-04-06T08:41:56;9.20;99.90
13223;DHT22;6676;45.192;5.722;2023-04-06T08:47:29;9.40;99.90
13223;DHT22;6676;45.192;5.722;2023-04-06T08:53:01;9.70;99.90
13223;DHT22;6676;45.192;5.722;2023-04-06T08:55:53;9.70;99.90
13223;DHT22;6676;45.192;5.722;2023-04-06T08:58:45;9.80;99.90
13223;DHT22;6676;45.192;5.722;2023-04-06T09:01:39;9.80;99.90
13223;DHT22;6676;45.192;5.722;2023-04-06T09:07:14;9.90;99.90
13223;DHT22;6676;45.192;5.722;2023-04-06T09:10:07;10.00;99.90
13223;DHT22;6676;45.192;5.722;2023-04-06T09:13:09;10.00;99.90
13223;DHT22;6676;45.192;5.722;2023-04-06T09:18:42;10.20;99.90
13223;DHT22;6676;45.192;5.722;2023-04-06T09:21:33;10.30;99.90
13223;DHT22;6676;45.192;5.722;2023-04-06T09:27:05;10.40;99.90
13223;DHT22;6676;45.192;5.722;2023-04-06T09:32:46;10.60;99.90
13223;DHT22;6676;45.192;5.722;2023-04-06T09:35:51;10.70;99.90
13223;DHT22;6676;45.192;5.722;2023-04-06T09:38:54;10.70;99.90
13223;DHT22;6676;45.192;5.722;2023-04-06T09:44:44;10.70;99.90
13223;DHT22;6676;45.192;5.722;2023-04-06T09:47:37;10.70;99.90
13223;DHT22;6676;45.192;5.722;2023-04-06T09:50:30;10.90;99.90
13223;DHT22;6676;45.192;5.722;2023-04-06T09:53:25;11.00;99.90
13223;DHT22;6676;45.192;5.722;2023-04-06T09:56:20;11.20;99.90
13223;DHT22;6676;45.192;5.722;2023-04-06T09:59:14;11.30;99.90
13223;DHT22;6676;45.192;5.722;2023-04-06T10:02:08;11.40;99.90
13223;DHT22;6676;45.192;5.722;2023-04-06T10:07:41;11.60;99.90
13223;DHT22;6676;45.192;5.722;2023-04-06T10:10:34;11.70;99.90
13223;DHT22;6676;45.192;5.722;2023-04-06T10:13:26;11.80;99.90
13223;DHT22;6676;45.192;5.722;2023-04-06T10:18:58;11.90;99.90
13223;DHT22;6676;45.192;5.722;2023-04-06T10:21:53;11.80;99.90
13223;DHT22;6676;45.192;5.722;2023-04-06T10:24:45;11.80;99.90
13223;DHT22;6676;45.192;5.722;2023-04-06T10:30:16;12.00;99.90
13223;DHT22;6676;45.192;5.722;2023-04-06T10:33:14;12.30;99.90
13223;DHT22;6676;45.192;5.722;2023-04-06T10:36:13;12.30;99.40
13223;DHT22;6676;45.192;5.722;2023-04-06T10:39:07;12.10;99.60
13223;DHT22;6676;45.192;5.722;2023-04-06T10:42:06;12.10;99.70
13223;DHT22;6676;45.192;5.722;2023-04-06T10:47:41;12.30;98.50
13223;DHT22;6676;45.192;5.722;2023-04-06T10:53:22;12.40;97.60
13223;DHT22;6676;45.192;5.722;2023-04-06T10:56:15;12.40;97.20
13223;DHT22;6676;45.192;5.722;2023-04-06T10:59:07;12.50;97.20
13223;DHT22;6676;45.192;5.722;2023-04-06T11:01:59;12.60;97.10
13223;DHT22;6676;45.192;5.722;2023-04-06T11:07:37;12.70;96.20
13223;DHT22;6676;45.192;5.722;2023-04-06T11:10:30;12.80;95.20
13223;DHT22;6676;45.192;5.722;2023-04-06T11:13:21;12.90;95.40
13223;DHT22;6676;45.192;5.722;2023-04-06T11:18:57;13.20;94.10
13223;DHT22;6676;45.192;5.722;2023-04-06T11:24:27;13.30;93.80
13223;DHT22;6676;45.192;5.722;2023-04-06T11:27:20;13.20;93.50
13223;DHT22;6676;45.192;5.722;2023-04-06T11:32:50;13.50;93.30
13223;DHT22;6676;45.192;5.722;2023-04-06T11:38:20;13.70;92.80
13223;DHT22;6676;45.192;5.722;2023-04-06T11:41:11;13.70;92.70
13223;DHT22;6676;45.192;5.722;2023-04-06T11:44:03;13.80;93.00
13223;DHT22;6676;45.192;5.722;2023-04-06T11:46:56;13.80;92.80
13223;DHT22;6676;45.192;5.722;2023-04-06T11:52:28;14.00;92.20
13223;DHT22;6676;45.192;5.722;2023-04-06T11:55:20;14.00;92.10
13223;DHT22;6676;45.192;5.722;2023-04-06T11:58:12;13.90;91.60
13223;DHT22;6676;45.192;5.722;2023-04-06T12:01:06;14.10;91.20
13223;DHT22;6676;45.192;5.722;2023-04-06T12:03:58;14.20;91.20
13223;DHT22;6676;45.192;5.722;2023-04-06T12:06:52;14.40;91.00
13223;DHT22;6676;45.192;5.722;2023-04-06T12:09:44;14.40;90.10
13223;DHT22;6676;45.192;5.722;2023-04-06T12:12:36;14.70;89.10
13223;DHT22;6676;45.192;5.722;2023-04-06T12:18:10;14.60;87.30
13223;DHT22;6676;45.192;5.722;2023-04-06T12:21:02;14.50;87.30
13223;DHT22;6676;45.192;5.722;2023-04-06T12:23:55;14.60;85.40
13223;DHT22;6676;45.192;5.722;2023-04-06T12:29:26;14.90;85.10
13223;DHT22;6676;45.192;5.722;2023-04-06T12:32:17;14.70;84.90
13223;DHT22;6676;45.192;5.722;2023-04-06T12:37:48;14.80;82.50
13223;DHT22;6676;45.192;5.722;2023-04-06T12:43:22;15.20;74.10
13223;DHT22;6676;45.192;5.722;2023-04-06T12:46:14;15.30;75.30
13223;DHT22;6676;45.192;5.722;2023-04-06T12:49:06;15.20;73.80
13223;DHT22;6676;45.192;5.722;2023-04-06T12:51:58;15.20;71.40
13223;DHT22;6676;45.192;5.722;2023-04-06T12:57:28;15.40;67.00
13223;DHT22;6676;45.192;5.722;2023-04-06T13:02:59;15.50;65.80
13223;DHT22;6676;45.192;5.722;2023-04-06T13:05:51;15.60;64.80
13223;DHT22;6676;45.192;5.722;2023-04-06T13:08:42;15.50;64.70
13223;DHT22;6676;45.192;5.722;2023-04-06T13:11:34;15.60;63.60
13223;DHT22;6676;45.192;5.722;2023-04-06T13:14:26;15.60;63.70
13223;DHT22;6676;45.192;5.722;2023-04-06T13:17:18;15.50;61.90
13223;DHT22;6676;45.192;5.722;2023-04-06T13:20:11;15.60;60.20
13223;DHT22;6676;45.192;5.722;2023-04-06T13:23:03;15.80;59.20
13223;DHT22;6676;45.192;5.722;2023-04-06T13:26:01;16.00;57.80
13223;DHT22;6676;45.192;5.722;2023-04-06T13:28:53;15.90;56.20
13223;DHT22;6676;45.192;5.722;2023-04-06T13:31:46;15.90;54.60
13223;DHT22;6676;45.192;5.722;2023-04-06T13:34:37;15.90;53.50
13223;DHT22;6676;45.192;5.722;2023-04-06T13:37:30;16.00;54.70
13223;DHT22;6676;45.192;5.722;2023-04-06T13:40:22;16.00;53.30
13223;DHT22;6676;45.192;5.722;2023-04-06T13:43:13;15.90;53.00
13223;DHT22;6676;45.192;5.722;2023-04-06T13:46:05;16.00;53.70
13223;DHT22;6676;45.192;5.722;2023-04-06T13:48:57;16.20;52.40
13223;DHT22;6676;45.192;5.722;2023-04-06T13:51:48;16.20;51.90
13223;DHT22;6676;45.192;5.722;2023-04-06T13:54:40;16.20;51.80
13223;DHT22;6676;45.192;5.722;2023-04-06T13:57:31;16.30;51.20
13223;DHT22;6676;45.192;5.722;2023-04-06T14:00:24;16.40;51.00
13223;DHT22;6676;45.192;5.722;2023-04-06T14:03:15;16.50;50.40
13223;DHT22;6676;45.192;5.722;2023-04-06T14:06:11;16.70;50.30
13223;DHT22;6676;45.192;5.722;2023-04-06T14:09:05;16.80;50.40
13223;DHT22;6676;45.192;5.722;2023-04-06T14:11:57;17.00;48.60
13223;DHT22;6676;45.192;5.722;2023-04-06T14:14:48;17.00;48.10
13223;DHT22;6676;45.192;5.722;2023-04-06T14:17:40;17.50;45.90
13223;DHT22;6676;45.192;5.722;2023-04-06T14:20:32;17.50;44.80
13223;DHT22;6676;45.192;5.722;2023-04-06T14:23:24;17.10;44.20
13223;DHT22;6676;45.192;5.722;2023-04-06T14:26:16;17.10;42.00
13223;DHT22;6676;45.192;5.722;2023-04-06T14:31:48;17.70;39.60
13223;DHT22;6676;45.192;5.722;2023-04-06T14:34:39;17.70;39.10
13223;DHT22;6676;45.192;5.722;2023-04-06T14:37:31;17.90;40.70
13223;DHT22;6676;45.192;5.722;2023-04-06T14:40:23;18.40;39.50
13223;DHT22;6676;45.192;5.722;2023-04-06T14:43:14;18.70;39.70
13223;DHT22;6676;45.192;5.722;2023-04-06T14:46:06;18.30;38.20
13223;DHT22;6676;45.192;5.722;2023-04-06T14:51:38;17.50;42.50
13223;DHT22;6676;45.192;5.722;2023-04-06T14:54:29;17.10;43.00
13223;DHT22;6676;45.192;5.722;2023-04-06T14:57:20;16.70;42.30
13223;DHT22;6676;45.192;5.722;2023-04-06T15:00:14;16.60;42.50
13223;DHT22;6676;45.192;5.722;2023-04-06T15:03:06;16.60;42.40
13223;DHT22;6676;45.192;5.722;2023-04-06T15:05:58;16.70;42.90
13223;DHT22;6676;45.192;5.722;2023-04-06T15:08:50;16.70;43.10
13223;DHT22;6676;45.192;5.722;2023-04-06T15:11:43;16.60;41.50
13223;DHT22;6676;45.192;5.722;2023-04-06T15:14:35;16.50;42.10
13223;DHT22;6676;45.192;5.722;2023-04-06T15:17:26;16.60;41.50
13223;DHT22;6676;45.192;5.722;2023-04-06T15:20:18;16.70;41.60
13223;DHT22;6676;45.192;5.722;2023-04-06T15:23:10;16.50;40.90
13223;DHT22;6676;45.192;5.722;2023-04-06T15:26:02;16.50;40.70
13223;DHT22;6676;45.192;5.722;2023-04-06T15:29:02;16.50;41.40
13223;DHT22;6676;45.192;5.722;2023-04-06T15:31:58;16.30;40.60
13223;DHT22;6676;45.192;5.722;2023-04-06T15:34:49;16.30;40.50
13223;DHT22;6676;45.192;5.722;2023-04-06T15:37:41;16.10;39.70
13223;DHT22;6676;45.192;5.722;2023-04-06T15:40:35;16.10;40.10
13223;DHT22;6676;45.192;5.722;2023-04-06T15:43:28;16.10;40.30
13223;DHT22;6676;45.192;5.722;2023-04-06T15:46:19;16.10;40.30
13223;DHT22;6676;45.192;5.722;2023-04-06T15:49:11;16.10;40.20
13223;DHT22;6676;45.192;5.722;2023-04-06T15:52:02;16.10;39.70
13223;DHT22;6676;45.192;5.722;2023-04-06T15:54:54;16.10;39.40
13223;DHT22;6676;45.192;5.722;2023-04-06T15:57:46;16.30;39.80
13223;DHT22;6676;45.192;5.722;2023-04-06T16:00:37;16.50;40.90
13223;DHT22;6676;45.192;5.722;2023-04-06T16:03:29;16.60;40.10
13223;DHT22;6676;45.192;5.722;2023-04-06T16:06:22;16.50;39.50
13223;DHT22;6676;45.192;5.722;2023-04-06T16:09:13;16.50;39.40
13223;DHT22;6676;45.192;5.722;2023-04-06T16:12:05;16.40;40.20
13223;DHT22;6676;45.192;5.722;2023-04-06T16:14:57;16.30;40.70
13223;DHT22;6676;45.192;5.722;2023-04-06T16:17:50;16.40;40.60
13223;DHT22;6676;45.192;5.722;2023-04-06T16:20:42;16.50;40.60
13223;DHT22;6676;45.192;5.722;2023-04-06T16:23:35;16.60;41.30
13223;DHT22;6676;45.192;5.722;2023-04-06T16:26:26;16.60;41.10
13223;DHT22;6676;45.192;5.722;2023-04-06T16:29:18;16.50;40.80
13223;DHT22;6676;45.192;5.722;2023-04-06T16:34:54;16.50;40.90
13223;DHT22;6676;45.192;5.722;2023-04-06T16:37:45;16.40;40.20
13223;DHT22;6676;45.192;5.722;2023-04-06T16:40:37;16.30;40.50
13223;DHT22;6676;45.192;5.722;2023-04-06T16:46:14;16.30;41.50
13223;DHT22;6676;45.192;5.722;2023-04-06T16:49:06;16.50;41.90
13223;DHT22;6676;45.192;5.722;2023-04-06T16:51:57;16.50;41.00
13223;DHT22;6676;45.192;5.722;2023-04-06T16:54:51;16.50;41.20
13223;DHT22;6676;45.192;5.722;2023-04-06T17:00:22;16.40;41.30
13223;DHT22;6676;45.192;5.722;2023-04-06T17:03:14;16.30;40.90
13223;DHT22;6676;45.192;5.722;2023-04-06T17:08:45;16.20;42.00
13223;DHT22;6676;45.192;5.722;2023-04-06T17:14:16;16.10;41.90
13223;DHT22;6676;45.192;5.722;2023-04-06T17:17:08;16.10;42.00
13223;DHT22;6676;45.192;5.722;2023-04-06T17:19:59;16.00;42.20
13223;DHT22;6676;45.192;5.722;2023-04-06T17:22:55;15.90;42.80
13223;DHT22;6676;45.192;5.722;2023-04-06T17:28:29;15.80;42.80
13223;DHT22;6676;45.192;5.722;2023-04-06T17:31:21;15.70;43.50
13223;DHT22;6676;45.192;5.722;2023-04-06T17:34:12;15.70;43.10
13223;DHT22;6676;45.192;5.722;2023-04-06T17:39:47;15.60;43.80
13223;DHT22;6676;45.192;5.722;2023-04-06T17:45:34;15.50;43.90
13223;DHT22;6676;45.192;5.722;2023-04-06T17:48:31;15.40;44.40
13223;DHT22;6676;45.192;5.722;2023-04-06T17:54:08;15.20;45.00
13223;DHT22;6676;45.192;5.722;2023-04-06T18:00:16;15.20;45.90
13223;DHT22;6676;45.192;5.722;2023-04-06T18:06:10;15.20;46.60
13223;DHT22;6676;45.192;5.722;2023-04-06T18:09:03;15.10;47.80
13223;DHT22;6676;45.192;5.722;2023-04-06T18:11:55;15.00;48.60
13223;DHT22;6676;45.192;5.722;2023-04-06T18:17:50;14.90;49.30
13223;DHT22;6676;45.192;5.722;2023-04-06T18:23:27;14.80;49.60
13223;DHT22;6676;45.192;5.722;2023-04-06T18:28:58;14.70;50.50
13223;DHT22;6676;45.192;5.722;2023-04-06T18:34:32;14.50;51.40
13223;DHT22;6676;45.192;5.722;2023-04-06T18:37:24;14.50;51.90
13223;DHT22;6676;45.192;5.722;2023-04-06T18:40:35;14.40;53.00
13223;DHT22;6676;45.192;5.722;2023-04-06T18:46:09;14.40;53.30
13223;DHT22;6676;45.192;5.722;2023-04-06T18:49:03;14.40;52.40
13223;DHT22;6676;45.192;5.722;2023-04-06T18:51:54;14.40;52.50
13223;DHT22;6676;45.192;5.722;2023-04-06T18:57:26;14.30;52.90
13223;DHT22;6676;45.192;5.722;2023-04-06T19:02:56;14.30;52.80
13223;DHT22;6676;45.192;5.722;2023-04-06T19:05:49;14.30;52.70
13223;DHT22;6676;45.192;5.722;2023-04-06T19:08:41;14.30;53.00
13223;DHT22;6676;45.192;5.722;2023-04-06T19:14:17;14.30;54.10
13223;DHT22;6676;45.192;5.722;2023-04-06T19:17:08;14.30;53.80
13223;DHT22;6676;45.192;5.722;2023-04-06T19:22:40;14.20;55.20
13223;DHT22;6676;45.192;5.722;2023-04-06T19:28:11;14.10;55.20
13223;DHT22;6676;45.192;5.722;2023-04-06T19:33:43;14.00;55.60
13223;DHT22;6676;45.192;5.722;2023-04-06T19:39:13;13.90;56.50
13223;DHT22;6676;45.192;5.722;2023-04-06T19:42:05;13.80;56.40
13223;DHT22;6676;45.192;5.722;2023-04-06T19:44:57;13.90;55.90
13223;DHT22;6676;45.192;5.722;2023-04-06T19:50:30;13.90;54.60
13223;DHT22;6676;45.192;5.722;2023-04-06T19:53:22;13.90;55.20
13223;DHT22;6676;45.192;5.722;2023-04-06T19:58:52;13.80;55.30
13223;DHT22;6676;45.192;5.722;2023-04-06T20:01:44;13.70;55.40
13223;DHT22;6676;45.192;5.722;2023-04-06T20:04:35;13.70;56.00
13223;DHT22;6676;45.192;5.722;2023-04-06T20:07:27;13.60;56.30
13223;DHT22;6676;45.192;5.722;2023-04-06T20:12:57;13.60;56.70
13223;DHT22;6676;45.192;5.722;2023-04-06T20:15:50;13.50;56.90
13223;DHT22;6676;45.192;5.722;2023-04-06T20:18:42;13.40;57.60
13223;DHT22;6676;45.192;5.722;2023-04-06T20:21:33;13.30;58.80
13223;DHT22;6676;45.192;5.722;2023-04-06T20:27:10;13.10;59.10
13223;DHT22;6676;45.192;5.722;2023-04-06T20:30:01;13.10;58.20
13223;DHT22;6676;45.192;5.722;2023-04-06T20:32:52;13.10;57.80
13223;DHT22;6676;45.192;5.722;2023-04-06T20:35:44;13.10;57.60
13223;DHT22;6676;45.192;5.722;2023-04-06T20:41:19;13.00;58.10
13223;DHT22;6676;45.192;5.722;2023-04-06T20:46:50;12.80;58.90
13223;DHT22;6676;45.192;5.722;2023-04-06T20:49:42;12.70;58.60
13223;DHT22;6676;45.192;5.722;2023-04-06T20:52:33;12.60;59.30
13223;DHT22;6676;45.192;5.722;2023-04-06T20:58:09;12.50;59.00
13223;DHT22;6676;45.192;5.722;2023-04-06T21:03:40;12.40;59.40
13223;DHT22;6676;45.192;5.722;2023-04-06T21:09:16;12.50;58.90
13223;DHT22;6676;45.192;5.722;2023-04-06T21:12:09;12.40;58.10
13223;DHT22;6676;45.192;5.722;2023-04-06T21:15:01;12.40;58.70
13223;DHT22;6676;45.192;5.722;2023-04-06T21:17:52;12.40;59.10
13223;DHT22;6676;45.192;5.722;2023-04-06T21:23:24;12.30;59.70
13223;DHT22;6676;45.192;5.722;2023-04-06T21:26:15;12.30;60.10
13223;DHT22;6676;45.192;5.722;2023-04-06T21:29:06;12.20;61.00
13223;DHT22;6676;45.192;5.722;2023-04-06T21:31:58;12.20;60.10
13223;DHT22;6676;45.192;5.722;2023-04-06T21:34:52;12.30;60.00
13223;DHT22;6676;45.192;5.722;2023-04-06T21:37:43;12.20;61.00
13223;DHT22;6676;45.192;5.722;2023-04-06T21:43:13;12.00;61.20
13223;DHT22;6676;45.192;5.722;2023-04-06T21:48:48;11.80;64.80
13223;DHT22;6676;45.192;5.722;2023-04-06T21:51:39;11.80;64.60
13223;DHT22;6676;45.192;5.722;2023-04-06T21:54:33;11.70;64.80
13223;DHT22;6676;45.192;5.722;2023-04-06T21:57:24;11.60;64.80
13223;DHT22;6676;45.192;5.722;2023-04-06T22:00:18;11.60;65.80
13223;DHT22;6676;45.192;5.722;2023-04-06T22:03:09;11.50;67.30
13223;DHT22;6676;45.192;5.722;2023-04-06T22:06:03;11.50;67.40
13223;DHT22;6676;45.192;5.722;2023-04-06T22:08:55;11.40;67.60
13223;DHT22;6676;45.192;5.722;2023-04-06T22:11:46;11.40;67.40
13223;DHT22;6676;45.192;5.722;2023-04-06T22:14:38;11.30;67.40
13223;DHT22;6676;45.192;5.722;2023-04-06T22:17:29;11.20;68.40
13223;DHT22;6676;45.192;5.722;2023-04-06T22:23:00;11.00;72.40
13223;DHT22;6676;45.192;5.722;2023-04-06T22:25:53;10.90;71.90
13223;DHT22;6676;45.192;5.722;2023-04-06T22:28:46;10.90;76.40
13223;DHT22;6676;45.192;5.722;2023-04-06T22:31:37;10.70;76.10
13223;DHT22;6676;45.192;5.722;2023-04-06T22:34:28;10.80;76.80
13223;DHT22;6676;45.192;5.722;2023-04-06T22:37:22;10.70;76.90
13223;DHT22;6676;45.192;5.722;2023-04-06T22:40:14;10.70;76.40
13223;DHT22;6676;45.192;5.722;2023-04-06T22:43:06;10.60;75.60
13223;DHT22;6676;45.192;5.722;2023-04-06T22:45:57;10.60;78.80
13223;DHT22;6676;45.192;5.722;2023-04-06T22:48:49;10.50;77.40
13223;DHT22;6676;45.192;5.722;2023-04-06T22:51:40;10.50;82.30
13223;DHT22;6676;45.192;5.722;2023-04-06T22:54:32;10.40;87.70
13223;DHT22;6676;45.192;5.722;2023-04-06T22:57:24;10.30;91.20
13223;DHT22;6676;45.192;5.722;2023-04-06T23:00:16;10.20;90.20
13223;DHT22;6676;45.192;5.722;2023-04-06T23:05:49;10.20;92.40
13223;DHT22;6676;45.192;5.722;2023-04-06T23:08:41;10.20;91.70
13223;DHT22;6676;45.192;5.722;2023-04-06T23:14:11;10.20;91.00
13223;DHT22;6676;45.192;5.722;2023-04-06T23:17:03;10.20;90.90
13223;DHT22;6676;45.192;5.722;2023-04-06T23:19:55;10.20;90.80
13223;DHT22;6676;45.192;5.722;2023-04-06T23:22:47;10.10;90.80
13223;DHT22;6676;45.192;5.722;2023-04-06T23:25:39;10.10;90.80
13223;DHT22;6676;45.192;5.722;2023-04-06T23:28:30;10.10;90.70
13223;DHT22;6676;45.192;5.722;2023-04-06T23:31:21;10.20;90.50
13223;DHT22;6676;45.192;5.722;2023-04-06T23:34:13;10.20;90.20
13223;DHT22;6676;45.192;5.722;2023-04-06T23:37:04;10.20;90.00
13223;DHT22;6676;45.192;5.722;2023-04-06T23:42:38;10.20;89.50
13223;DHT22;6676;45.192;5.722;2023-04-06T23:45:29;10.30;89.30